Time;durP1;ratioP1;P1;durP2;ratioP2;P2;SDS_P1;SDS_P2;PMS_P1;PMS_P2;Temp;Humidity;BMP_temperature;BMP_pressure;BME280_temperature;BME280_humidity;BME280_pressure;Samples;Min_cycle;Max_cycle;Signal;HPM_P1;HPM_P2
2023/04/10 00:04:17;;;;;;;7.50;4.60;;;13.40;96.70;;;;;;5074604;28;20069;-72
2023/04/10 00:06:48;;;;;;;5.90;4.30;;;13.10;96.70;;;;;;5073892;28;20059;-72
2023/04/10 00:09:16;;;;;;;5.97;4.53;;;13.20;96.70;;;;;;5075980;28;20136;-72
2023/04/10 00:11:44;;;;;;;5.13;4.30;;;13.20;96.70;;;;;;5077929;28;20059;-73
2023/04/10 00:14:12;;;;;;;5.97;4.30;;;13.20;96.70;;;;;;5079681;28;20036;-73
2023/04/10 00:16:40;;;;;;;5.82;4.13;;;13.20;96.70;;;;;;5082618;28;20100;-73
2023/04/10 00:19:08;;;;;;;6.13;4.07;;;13.30;96.70;;;;;;5080121;28;20048;-73
2023/04/10 00:21:36;;;;;;;6.32;3.95;;;13.30;96.70;;;;;;5081007;28;20043;-72
2023/04/10 00:24:06;;;;;;;4.90;3.90;;;13.20;96.70;;;;;;5082321;28;20040;-73
2023/04/10 00:26:34;;;;;;;5.25;3.60;;;13.10;96.70;;;;;;5080116;28;20701;-72
2023/04/10 00:29:03;;;;;;;3.58;3.10;;;13.10;96.70;;;;;;5079601;28;20048;-72
2023/04/10 00:31:31;;;;;;;3.28;2.65;;;13.20;96.70;;;;;;5081109;28;20040;-72
2023/04/10 00:34:00;;;;;;;4.10;2.50;;;13.20;96.70;;;;;;5080762;28;20093;-73
2023/04/10 00:36:28;;;;;;;4.63;2.63;;;13.20;96.70;;;;;;5078357;28;20038;-72
2023/04/10 00:38:58;;;;;;;4.53;2.55;;;12.90;96.70;;;;;;5084777;28;20067;-72
2023/04/10 00:41:28;;;;;;;3.00;2.70;;;12.80;96.70;;;;;;5078408;28;20448;-72
2023/04/10 00:43:57;;;;;;;3.95;2.83;;;12.90;96.70;;;;;;5081720;28;20044;-72
2023/04/10 00:46:26;;;;;;;3.58;2.58;;;13.00;96.70;;;;;;5076075;28;20040;-72
2023/04/10 00:49:05;;;;;;;3.13;2.83;;;12.70;96.70;;;;;;5076205;28;20048;-72
2023/04/10 00:51:42;;;;;;;3.00;2.63;;;12.90;96.70;;;;;;5077588;28;20131;-72
2023/04/10 00:54:51;;;;;;;3.15;2.22;;;12.90;96.70;;;;;;5079817;28;20036;-72
2023/04/10 00:57:58;;;;;;;3.03;2.45;;;13.00;96.70;;;;;;5075256;28;20044;-72
2023/04/10 01:00:55;;;;;;;4.05;3.10;;;13.10;96.70;;;;;;5082049;28;20168;-72
2023/04/10 01:03:52;;;;;;;3.38;2.50;;;13.20;96.70;;;;;;5081705;28;20060;-73
2023/04/10 01:07:14;;;;;;;5.47;3.63;;;13.10;96.70;;;;;;5079871;28;20118;-73
2023/04/10 01:10:31;;;;;;;5.40;3.38;;;13.10;96.70;;;;;;5082385;28;20063;-73
2023/04/10 01:13:42;;;;;;;5.10;3.67;;;13.00;96.70;;;;;;5074593;28;20042;-72
2023/04/10 01:29:08;;;;;;;4.50;3.05;;;13.00;96.70;;;;;;5077193;28;20094;-73
2023/04/10 01:31:44;;;;;;;4.20;3.13;;;13.00;96.70;;;;;;5067159;28;20501;-72
2023/04/10 01:34:18;;;;;;;4.78;3.42;;;13.00;96.70;;;;;;5080462;28;20044;-72
2023/04/10 01:36:50;;;;;;;4.03;3.17;;;13.00;96.70;;;;;;5075739;28;20051;-72
2023/04/10 03:04:31;;;;;;;5.00;2.67;;;12.80;96.70;;;;;;5056491;28;20077;-73
2023/04/10 03:07:00;;;;;;;5.18;2.40;;;12.80;96.70;;;;;;5073959;28;20044;-73
2023/04/10 03:09:28;;;;;;;4.30;2.90;;;12.80;96.70;;;;;;5075870;28;20751;-74
2023/04/10 04:10:32;;;;;;;2.95;1.50;;;12.40;96.70;;;;;;5042139;28;20053;-73
2023/04/10 04:13:12;;;;;;;1.67;1.00;;;12.50;96.70;;;;;;5039116;28;20144;-73
2023/04/10 04:15:55;;;;;;;1.20;0.90;;;12.50;96.70;;;;;;5035563;28;20041;-73
2023/04/10 05:05:15;;;;;;;1.27;1.00;;;12.10;96.70;;;;;;5036741;28;20048;-73
2023/04/10 05:07:56;;;;;;;1.42;1.00;;;12.10;96.70;;;;;;5038744;28;20173;-73
2023/04/10 05:10:45;;;;;;;1.77;1.00;;;12.20;96.70;;;;;;5084245;28;20052;-73
2023/04/10 05:13:42;;;;;;;1.30;1.00;;;12.20;96.70;;;;;;5026118;28;20057;-74
2023/04/10 05:16:30;;;;;;;1.70;1.20;;;12.10;96.70;;;;;;5056686;28;20056;-73
2023/04/10 05:19:21;;;;;;;3.90;1.42;;;11.90;96.70;;;;;;5077497;28;20067;-73
2023/04/10 05:22:23;;;;;;;2.00;1.67;;;11.80;96.70;;;;;;5045818;28;20048;-73
2023/04/10 05:25:06;;;;;;;3.55;2.47;;;11.90;96.70;;;;;;5076604;28;20421;-72
2023/04/10 05:27:56;;;;;;;3.30;2.92;;;12.00;96.70;;;;;;5073058;28;20040;-73
2023/04/10 05:30:43;;;;;;;15.88;13.68;;;11.90;96.70;;;;;;5075731;28;20055;-73
2023/04/10 05:33:31;;;;;;;17.00;13.90;;;11.90;96.70;;;;;;5078736;28;20123;-73
2023/04/10 05:36:18;;;;;;;13.80;12.15;;;12.10;96.70;;;;;;5073749;28;20542;-73
2023/04/10 05:39:19;;;;;;;10.32;8.60;;;12.20;96.70;;;;;;5076066;28;20052;-73
2023/04/10 05:42:25;;;;;;;;;;;12.30;96.70;;;;;;5039424;28;20053;-73
2023/04/10 05:45:14;;;;;;;4.25;3.55;;;12.40;96.70;;;;;;5018572;28;20443;-73
2023/04/10 05:48:08;;;;;;;3.17;1.80;;;12.40;96.70;;;;;;5002771;28;20050;-73
2023/04/10 05:50:57;;;;;;;4.72;1.67;;;12.50;96.70;;;;;;4984733;28;20053;-73
2023/04/10 05:53:34;;;;;;;1.98;1.42;;;12.50;96.70;;;;;;5000871;28;20173;-72
2023/04/10 05:56:22;;;;;;;2.70;1.50;;;12.50;96.70;;;;;;4998764;28;20046;-72
2023/04/10 05:59:23;;;;;;;2.25;1.60;;;12.60;96.70;;;;;;5002049;28;20056;-73
2023/04/10 06:02:18;;;;;;;5.85;2.53;;;12.70;96.70;;;;;;5011867;28;20053;-73
2023/04/10 06:04:47;;;;;;;4.22;2.85;;;12.80;96.70;;;;;;4996753;28;20148;-72
2023/04/10 06:07:16;;;;;;;4.93;3.70;;;12.70;96.70;;;;;;5014698;28;20471;-73
2023/04/10 06:09:44;;;;;;;9.27;4.53;;;12.80;96.70;;;;;;5000814;28;20057;-73
2023/04/10 06:12:15;;;;;;;7.03;5.35;;;12.90;96.70;;;;;;5013250;28;20064;-72
2023/04/10 06:14:43;;;;;;;8.63;4.90;;;12.90;96.70;;;;;;4998009;28;20046;-73
2023/04/10 06:17:14;;;;;;;8.75;5.63;;;12.90;96.70;;;;;;5001747;28;20426;-73
2023/04/10 06:19:43;;;;;;;8.70;5.20;;;13.00;96.70;;;;;;4999701;28;20042;-73
2023/04/10 06:22:11;;;;;;;9.02;5.40;;;13.00;96.70;;;;;;5009369;28;20037;-73
2023/04/10 06:24:39;;;;;;;5.55;4.22;;;13.00;96.70;;;;;;5036236;28;20052;-73
2023/04/10 06:27:07;;;;;;;7.00;3.25;;;13.00;96.70;;;;;;5074555;28;20568;-73
2023/04/10 06:29:37;;;;;;;8.93;3.75;;;12.90;96.70;;;;;;5075571;28;20055;-73
2023/04/10 06:32:06;;;;;;;5.50;4.13;;;12.90;96.70;;;;;;5069723;28;20414;-73
2023/04/10 06:34:37;;;;;;;10.60;3.20;;;12.90;96.70;;;;;;5076776;28;20047;-74
2023/04/10 06:37:08;;;;;;;6.07;2.50;;;13.00;96.70;;;;;;5076544;28;20048;-73
2023/04/10 06:39:38;;;;;;;4.57;2.00;;;13.10;96.70;;;;;;5075672;28;20067;-73
2023/04/10 06:42:06;;;;;;;6.15;2.28;;;13.10;96.70;;;;;;5071444;28;20085;-72
2023/04/10 06:44:52;;;;;;;4.70;1.90;;;13.10;96.70;;;;;;5080359;28;20055;-73
2023/04/10 06:47:21;;;;;;;1.90;1.30;;;13.20;96.70;;;;;;5083682;28;20486;-72
2023/04/10 06:49:49;;;;;;;2.58;1.38;;;13.30;96.70;;;;;;5087501;28;20063;-73
2023/04/10 06:52:18;;;;;;;1.33;0.95;;;13.30;96.70;;;;;;5104618;28;20155;-73
2023/04/10 06:54:46;;;;;;;1.70;1.30;;;13.40;96.70;;;;;;5097319;28;20585;-72
2023/04/10 06:57:14;;;;;;;2.15;1.10;;;13.40;96.70;;;;;;5083009;28;20374;-72
2023/04/10 06:59:42;;;;;;;2.08;1.08;;;13.50;96.70;;;;;;5085783;28;20040;-72
2023/04/10 07:02:12;;;;;;;2.20;1.10;;;13.50;96.70;;;;;;5077254;28;20044;-72
2023/04/10 07:04:41;;;;;;;3.00;1.05;;;13.60;96.70;;;;;;5084765;28;20474;-72
2023/04/10 07:07:12;;;;;;;4.05;1.20;;;13.60;96.70;;;;;;5084487;28;20134;-73
2023/04/10 07:09:40;;;;;;;1.52;0.90;;;13.70;96.70;;;;;;5085523;28;20079;-74
2023/04/10 07:12:08;;;;;;;1.60;1.00;;;13.70;96.70;;;;;;5088906;28;20050;-74
2023/04/10 07:14:36;;;;;;;3.22;1.10;;;13.80;96.70;;;;;;5093891;28;20046;-74
2023/04/10 07:17:04;;;;;;;1.85;1.10;;;13.80;96.70;;;;;;5093482;28;20040;-74
2023/04/10 07:19:34;;;;;;;2.40;1.00;;;13.80;96.70;;;;;;5092258;28;20124;-74
2023/04/10 07:22:03;;;;;;;1.10;0.63;;;13.80;96.70;;;;;;5082227;28;20101;-74
2023/04/10 07:24:31;;;;;;;1.13;0.80;;;13.90;96.70;;;;;;5084262;28;20379;-73
2023/04/10 07:27:00;;;;;;;0.95;0.60;;;13.90;96.70;;;;;;5084943;28;20507;-73
2023/04/10 07:29:29;;;;;;;0.73;0.50;;;14.00;96.70;;;;;;5083272;28;20048;-74
2023/04/10 07:31:58;;;;;;;1.00;0.80;;;14.00;96.70;;;;;;5079652;28;20059;-74
2023/04/10 07:34:27;;;;;;;0.90;0.60;;;14.00;96.70;;;;;;5077493;28;20115;-73
2023/04/10 07:36:56;;;;;;;2.25;0.85;;;14.10;96.70;;;;;;5083702;28;20524;-73
2023/04/10 07:39:25;;;;;;;1.40;1.00;;;14.20;96.70;;;;;;5092416;28;20040;-73
2023/04/10 07:41:53;;;;;;;0.70;0.60;;;14.20;96.70;;;;;;5095353;28;20042;-73
2023/04/10 07:44:22;;;;;;;1.23;0.73;;;14.20;96.70;;;;;;5072054;28;20072;-73
2023/04/10 07:46:51;;;;;;;0.88;0.50;;;14.30;96.70;;;;;;5087600;28;20063;-72
2023/04/10 07:49:19;;;;;;;3.05;0.80;;;14.40;96.70;;;;;;5089637;28;20040;-73
2023/04/10 07:51:47;;;;;;;0.60;0.50;;;14.40;96.70;;;;;;5093818;28;20063;-72
2023/04/10 07:54:17;;;;;;;0.90;0.60;;;14.40;96.70;;;;;;5095743;28;20040;-71
2023/04/10 07:56:45;;;;;;;2.35;0.63;;;14.40;96.70;;;;;;5083127;28;20543;-72
2023/04/10 07:59:13;;;;;;;1.10;0.70;;;14.50;96.70;;;;;;5085751;28;20051;-72
2023/04/10 08:01:41;;;;;;;3.63;0.90;;;14.50;96.70;;;;;;5086263;28;20115;-71
2023/04/10 08:04:10;;;;;;;1.05;0.70;;;14.50;96.70;;;;;;5098873;28;20059;-72
2023/04/10 08:06:38;;;;;;;3.17;0.85;;;14.50;96.70;;;;;;5068104;28;20036;-73
2023/04/10 08:09:06;;;;;;;0.80;0.55;;;14.60;96.70;;;;;;5083441;28;20051;-71
2023/04/10 08:11:36;;;;;;;0.88;0.60;;;14.60;96.70;;;;;;5075382;28;20039;-73
2023/04/10 08:14:05;;;;;;;0.80;0.60;;;14.70;96.70;;;;;;5077764;28;20134;-71
2023/04/10 08:16:35;;;;;;;1.90;0.63;;;14.70;96.70;;;;;;5096034;28;20510;-72
2023/04/10 08:19:03;;;;;;;2.90;0.80;;;14.70;96.70;;;;;;5098757;28;20047;-73
2023/04/10 08:21:31;;;;;;;1.55;0.70;;;14.70;96.70;;;;;;5068717;28;20035;-71
2023/04/10 08:24:01;;;;;;;2.92;0.80;;;14.70;96.70;;;;;;5077073;28;20046;-72
2023/04/10 08:26:29;;;;;;;1.45;0.60;;;14.70;96.70;;;;;;5092172;28;20927;-72
2023/04/10 08:28:59;;;;;;;1.20;0.90;;;14.70;96.70;;;;;;5095331;28;20067;-73
2023/04/10 08:31:28;;;;;;;1.13;0.70;;;14.80;96.70;;;;;;5094583;28;20072;-71
2023/04/10 08:33:56;;;;;;;1.52;0.70;;;14.80;96.70;;;;;;5082210;28;20462;-73
2023/04/10 08:36:26;;;;;;;1.10;0.70;;;14.90;96.70;;;;;;5092318;28;20147;-72
2023/04/10 08:38:54;;;;;;;0.93;0.85;;;15.10;96.70;;;;;;5095388;28;20055;-72
2023/04/10 08:41:22;;;;;;;2.33;0.70;;;15.30;96.70;;;;;;5102107;28;20044;-72
2023/04/10 08:43:50;;;;;;;1.20;0.80;;;15.40;96.70;;;;;;5084820;28;20055;-72
2023/04/10 08:46:24;;;;;;;0.73;0.60;;;15.30;96.70;;;;;;5065661;28;20044;-72
2023/04/10 08:48:58;;;;;;;1.23;0.80;;;15.30;96.70;;;;;;5082627;28;20121;-73
2023/04/10 08:51:31;;;;;;;1.02;0.73;;;15.40;96.70;;;;;;5098830;28;20121;-73
2023/04/10 08:54:05;;;;;;;2.00;0.80;;;15.40;96.70;;;;;;5090536;28;20142;-72
2023/04/10 08:56:36;;;;;;;1.80;0.80;;;15.50;96.70;;;;;;5084268;28;20042;-73
2023/04/10 08:59:06;;;;;;;2.15;0.73;;;15.70;96.70;;;;;;5083256;28;20120;-72
2023/04/10 09:01:38;;;;;;;1.80;0.90;;;15.70;96.70;;;;;;5085811;28;20043;-71
2023/04/10 09:04:10;;;;;;;1.25;0.77;;;15.70;96.70;;;;;;5092198;28;20386;-72
2023/04/10 09:06:39;;;;;;;1.65;0.60;;;15.80;96.70;;;;;;5085874;28;20036;-72
2023/04/10 09:09:08;;;;;;;3.38;1.05;;;15.80;96.70;;;;;;5081468;28;20055;-72
2023/04/10 09:11:59;;;;;;;2.55;0.90;;;15.90;96.70;;;;;;5077777;28;20067;-72
2023/04/10 09:14:29;;;;;;;1.38;1.00;;;16.00;96.70;;;;;;5082762;28;20550;-74
2023/04/10 09:17:17;;;;;;;1.30;0.80;;;16.00;96.70;;;;;;5098706;28;20096;-72
2023/04/10 09:19:46;;;;;;;1.73;0.90;;;15.90;96.70;;;;;;5085267;28;20062;-72
2023/04/10 09:22:15;;;;;;;2.03;1.10;;;15.90;96.70;;;;;;5065192;28;20044;-72
2023/04/10 09:24:46;;;;;;;1.75;0.93;;;15.80;96.70;;;;;;5081820;28;20409;-72
2023/04/10 09:27:32;;;;;;;1.80;0.80;;;16.00;96.70;;;;;;5098594;28;21000;-72
2023/04/10 09:30:01;;;;;;;0.73;0.68;;;16.20;96.70;;;;;;5083713;28;20036;-74
2023/04/10 09:32:39;;;;;;;0.68;0.63;;;16.40;96.70;;;;;;5082989;28;20076;-73
2023/04/10 09:35:09;;;;;;;1.50;1.02;;;16.30;96.70;;;;;;5074584;28;20052;-73
2023/04/10 09:37:42;;;;;;;1.30;0.73;;;16.20;96.70;;;;;;5081247;28;20394;-73
2023/04/10 09:40:20;;;;;;;0.90;0.68;;;16.00;96.70;;;;;;5067876;28;20483;-73
2023/04/10 09:42:49;;;;;;;2.70;0.77;;;16.00;96.70;;;;;;5099309;28;20042;-73
2023/04/10 09:45:19;;;;;;;1.40;0.90;;;16.00;96.70;;;;;;5093027;28;20525;-73
2023/04/10 09:48:05;;;;;;;1.00;0.60;;;16.10;96.70;;;;;;5099575;28;20565;-73
2023/04/10 09:50:34;;;;;;;3.05;0.98;;;16.10;96.70;;;;;;5093441;28;20051;-73
2023/04/10 09:53:07;;;;;;;4.07;2.80;;;16.10;96.70;;;;;;5075214;28;20049;-73
2023/04/10 09:55:35;;;;;;;2.70;1.70;;;16.20;96.70;;;;;;5071969;28;20600;-72
2023/04/10 09:58:05;;;;;;;2.85;1.50;;;16.30;96.70;;;;;;5081729;28;20048;-72
2023/04/10 10:00:40;;;;;;;1.88;1.40;;;16.40;96.70;;;;;;5080983;28;20070;-73
2023/04/10 10:03:13;;;;;;;1.40;0.98;;;16.50;96.70;;;;;;5082408;28;20565;-71
2023/04/10 10:05:44;;;;;;;1.50;0.82;;;16.90;96.70;;;;;;5090245;28;20059;-73
2023/04/10 10:08:14;;;;;;;2.17;1.85;;;16.90;96.70;;;;;;5090314;28;20051;-72
2023/04/10 10:10:46;;;;;;;3.15;0.80;;;17.00;96.70;;;;;;5085337;28;20105;-72
2023/04/10 10:13:20;;;;;;;1.70;1.25;;;17.10;96.70;;;;;;5091551;28;20047;-73
2023/04/10 10:15:57;;;;;;;3.65;1.42;;;17.10;96.70;;;;;;5089466;28;20590;-73
2023/04/10 10:18:35;;;;;;;1.00;0.90;;;17.20;96.70;;;;;;5088380;28;20055;-73
2023/04/10 10:21:05;;;;;;;1.40;1.30;;;17.40;96.70;;;;;;5095060;28;20050;-72
2023/04/10 10:23:33;;;;;;;1.35;0.70;;;17.50;96.70;;;;;;5094884;28;20078;-72
2023/04/10 10:26:05;;;;;;;1.10;0.80;;;17.60;96.70;;;;;;5070957;28;20430;-73
2023/04/10 10:28:35;;;;;;;1.75;1.33;;;17.60;96.70;;;;;;5096411;28;20054;-72
2023/04/10 10:31:04;;;;;;;1.65;1.00;;;17.60;96.70;;;;;;5092154;28;20044;-72
2023/04/10 10:33:36;;;;;;;1.80;0.98;;;17.60;96.70;;;;;;5096133;28;20071;-73
2023/04/10 10:36:06;;;;;;;2.13;1.27;;;17.50;96.70;;;;;;5089747;28;20400;-72
2023/04/10 10:38:38;;;;;;;2.75;0.93;;;17.50;96.70;;;;;;5082033;28;20044;-73
2023/04/10 10:41:17;;;;;;;5.47;3.40;;;17.50;96.70;;;;;;5089448;28;20056;-73
2023/04/10 10:43:54;;;;;;;2.53;2.33;;;17.70;96.70;;;;;;5094353;28;20055;-73
2023/04/10 10:46:32;;;;;;;3.50;2.25;;;18.00;96.70;;;;;;5090427;28;20540;-73
2023/04/10 10:49:03;;;;;;;3.53;3.22;;;18.00;96.70;;;;;;5093364;28;20048;-73
2023/04/10 10:51:49;;;;;;;3.38;1.90;;;18.40;96.70;;;;;;5071831;28;20171;-72
2023/04/10 10:54:28;;;;;;;2.20;1.20;;;18.70;96.70;;;;;;5081246;28;20404;-72
2023/04/10 10:56:57;;;;;;;7.60;4.82;;;18.90;96.70;;;;;;5080636;28;20055;-72
2023/04/10 10:59:54;;;;;;;10.60;7.97;;;18.90;96.70;;;;;;5091322;28;20059;-72
2023/04/10 11:02:23;;;;;;;5.07;4.20;;;18.90;96.70;;;;;;5065817;28;20048;-72
2023/04/10 11:04:53;;;;;;;9.18;7.40;;;18.80;96.70;;;;;;5080552;28;20060;-72
2023/04/10 11:08:07;;;;;;;6.25;4.75;;;18.70;96.70;;;;;;5087490;28;20129;-72
2023/04/10 11:11:09;;;;;;;9.38;7.20;;;18.70;96.70;;;;;;5075341;28;20045;-72
2023/04/10 11:13:39;;;;;;;6.50;4.93;;;19.00;96.70;;;;;;5065747;28;20048;-72
2023/04/10 11:16:12;;;;;;;4.35;2.80;;;19.00;96.70;;;;;;5082218;28;20139;-72
2023/04/10 11:19:08;;;;;;;2.47;1.70;;;19.00;96.70;;;;;;5081307;28;20453;-72
2023/04/10 11:22:09;;;;;;;1.60;1.25;;;19.20;96.70;;;;;;5067017;28;20091;-73
2023/04/10 11:24:57;;;;;;;2.72;1.83;;;19.40;96.70;;;;;;5058275;28;20063;-73
2023/04/10 11:27:52;;;;;;;3.85;1.77;;;19.50;96.70;;;;;;5089515;28;20070;-73
2023/04/10 11:30:35;;;;;;;2.53;1.40;;;19.70;96.70;;;;;;5088117;28;20058;-71
2023/04/10 11:33:05;;;;;;;1.35;1.20;;;19.50;96.70;;;;;;5096876;28;20451;-72
2023/04/10 11:35:33;;;;;;;1.83;0.80;;;19.30;96.70;;;;;;5070207;28;20671;-73
2023/04/10 11:38:11;;;;;;;1.13;0.80;;;19.40;96.70;;;;;;5094091;28;20047;-72
2023/04/10 11:41:05;;;;;;;2.05;0.77;;;19.70;96.70;;;;;;5084878;28;20101;-72
2023/04/10 11:43:34;;;;;;;2.25;0.95;;;19.80;96.70;;;;;;5076385;28;20068;-73
2023/04/10 11:46:06;;;;;;;1.38;1.15;;;19.90;96.70;;;;;;5088134;28;20040;-72
2023/04/10 11:48:36;;;;;;;1.33;1.05;;;20.10;96.70;;;;;;5102271;28;20074;-72
2023/04/10 11:51:10;;;;;;;1.50;1.15;;;20.00;96.70;;;;;;5085566;28;20599;-72
2023/04/10 11:53:41;;;;;;;6.53;5.35;;;20.30;96.70;;;;;;5091804;28;20044;-72
2023/04/10 11:56:17;;;;;;;8.50;7.00;;;20.50;96.70;;;;;;5083432;28;20054;-71
2023/04/10 11:58:46;;;;;;;;;;;20.70;96.70;;;;;;5084863;28;20700;-72
2023/04/10 12:01:15;;;;;;;3.17;1.30;;;20.60;96.70;;;;;;5092269;28;19967;-73
2023/04/10 12:03:44;;;;;;;1.02;0.88;;;20.70;96.00;;;;;;5085114;28;20121;-71
2023/04/10 12:06:14;;;;;;;1.63;1.40;;;20.80;95.80;;;;;;5075770;28;20116;-72
2023/04/10 12:08:49;;;;;;;2.65;1.10;;;20.70;96.30;;;;;;5084023;28;20074;-72
2023/04/10 12:11:19;;;;;;;3.28;1.00;;;20.80;95.90;;;;;;5093045;28;20036;-71
2023/04/10 12:13:50;;;;;;;2.08;1.42;;;21.00;95.50;;;;;;5084630;28;20485;-72
2023/04/10 12:16:20;;;;;;;1.65;1.25;;;21.10;95.00;;;;;;5093904;28;20051;-72
2023/04/10 12:18:49;;;;;;;1.52;1.13;;;21.00;95.70;;;;;;5089201;28;21206;-72
2023/04/10 12:21:18;;;;;;;2.13;1.05;;;20.80;95.70;;;;;;5093330;28;20130;-72
2023/04/10 12:23:48;;;;;;;1.52;1.23;;;20.50;96.10;;;;;;5102929;28;20051;-72
2023/04/10 12:26:17;;;;;;;1.13;0.80;;;20.40;96.50;;;;;;5091224;28;20097;-72
2023/04/10 12:28:51;;;;;;;1.38;0.80;;;20.50;95.00;;;;;;5084630;28;20145;-72
2023/04/10 12:31:27;;;;;;;0.93;0.70;;;20.70;95.20;;;;;;5100966;28;20471;-72
2023/04/10 12:33:56;;;;;;;1.10;0.60;;;20.90;96.10;;;;;;5093092;28;20051;-72
2023/04/10 12:36:28;;;;;;;5.25;1.58;;;21.00;95.00;;;;;;5086146;28;20118;-72
2023/04/10 12:39:00;;;;;;;2.58;1.58;;;21.10;94.70;;;;;;5082487;28;20536;-72
2023/04/10 12:41:30;;;;;;;1.10;0.90;;;21.20;94.70;;;;;;5099901;28;20073;-72
2023/04/10 12:44:10;;;;;;;1.88;1.13;;;21.00;93.40;;;;;;5087446;28;20078;-72
2023/04/10 12:46:39;;;;;;;2.47;1.48;;;20.80;93.80;;;;;;5100191;28;20036;-71
2023/04/10 12:49:10;;;;;;;2.45;1.45;;;20.80;93.90;;;;;;5092606;28;20454;-72
2023/04/10 12:51:45;;;;;;;3.42;2.20;;;20.90;94.50;;;;;;5076333;28;20171;-73
2023/04/10 12:54:33;;;;;;;1.10;0.80;;;21.00;95.10;;;;;;5097502;28;20055;-73
2023/04/10 12:57:03;;;;;;;1.52;0.80;;;21.30;93.30;;;;;;5091913;28;20047;-72
2023/04/10 12:59:32;;;;;;;0.80;0.77;;;21.40;93.00;;;;;;5092152;28;20051;-73
2023/04/10 13:02:00;;;;;;;1.08;0.60;;;21.50;93.30;;;;;;5091906;28;20089;-73
2023/04/10 13:04:31;;;;;;;1.27;0.82;;;21.40;92.00;;;;;;5087627;28;20043;-72
2023/04/10 13:07:00;;;;;;;1.05;0.70;;;21.50;93.20;;;;;;5087010;28;20584;-72
2023/04/10 13:09:30;;;;;;;0.70;0.50;;;21.60;93.10;;;;;;5083537;28;20044;-72
2023/04/10 13:11:59;;;;;;;0.73;0.70;;;21.70;93.10;;;;;;5073503;28;20048;-72
2023/04/10 13:14:27;;;;;;;0.80;0.47;;;21.70;90.70;;;;;;5084883;28;20447;-72
2023/04/10 13:16:56;;;;;;;1.10;0.50;;;21.80;91.40;;;;;;5101789;28;20043;-72
2023/04/10 13:19:24;;;;;;;1.08;0.65;;;21.90;91.40;;;;;;5070826;28;20684;-72
2023/04/10 13:21:53;;;;;;;0.90;0.50;;;21.90;91.90;;;;;;5092161;28;20532;-72
2023/04/10 13:24:21;;;;;;;2.15;0.65;;;21.90;90.10;;;;;;5098535;28;20100;-72
2023/04/10 13:26:52;;;;;;;0.70;0.50;;;22.00;92.10;;;;;;5089028;28;20691;-72
2023/04/10 13:29:21;;;;;;;0.70;0.60;;;22.00;91.30;;;;;;5088940;28;20043;-72
2023/04/10 13:31:49;;;;;;;1.90;0.73;;;22.10;91.30;;;;;;5083520;28;20147;-73
2023/04/10 13:34:18;;;;;;;1.38;1.02;;;22.20;90.00;;;;;;5083213;28;20397;-72
2023/04/10 13:36:47;;;;;;;0.95;0.60;;;22.10;89.30;;;;;;5079853;28;20437;-72
2023/04/10 13:39:17;;;;;;;2.10;0.73;;;22.00;90.00;;;;;;5084633;28;20051;-72
2023/04/10 13:41:47;;;;;;;1.02;0.43;;;22.20;90.80;;;;;;5087375;28;20413;-72
2023/04/10 13:44:17;;;;;;;0.57;0.47;;;22.40;90.20;;;;;;5081442;28;20052;-73
2023/04/10 13:46:46;;;;;;;1.35;0.68;;;22.60;89.60;;;;;;5083197;28;20128;-73
2023/04/10 13:49:19;;;;;;;0.52;0.50;;;22.80;89.30;;;;;;5080412;28;20052;-73
2023/04/10 13:51:47;;;;;;;1.10;0.55;;;23.00;89.20;;;;;;5079891;28;20052;-72
2023/04/10 13:54:16;;;;;;;0.63;0.50;;;23.30;89.20;;;;;;5084875;28;20120;-72
2023/04/10 13:56:45;;;;;;;1.10;0.82;;;23.40;87.30;;;;;;5084207;28;20139;-72
2023/04/10 13:59:14;;;;;;;0.70;0.70;;;23.50;87.50;;;;;;5089603;28;20468;-71
2023/04/10 14:01:44;;;;;;;0.82;0.80;;;23.50;86.70;;;;;;5082172;28;20044;-72
2023/04/10 14:04:12;;;;;;;0.93;0.63;;;23.60;86.90;;;;;;5082928;28;20051;-72
2023/04/10 14:06:41;;;;;;;0.98;0.63;;;23.70;87.80;;;;;;5087005;28;20051;-72
2023/04/10 14:09:10;;;;;;;0.88;0.68;;;24.00;88.30;;;;;;5080038;28;20133;-72
2023/04/10 14:11:38;;;;;;;1.13;0.85;;;24.10;87.90;;;;;;5080688;28;20094;-73
2023/04/10 14:14:07;;;;;;;3.30;0.90;;;24.30;88.10;;;;;;5090985;28;20097;-72
2023/04/10 14:16:35;;;;;;;1.35;0.80;;;24.50;87.20;;;;;;5073339;28;20451;-73
2023/04/10 14:19:06;;;;;;;1.75;1.08;;;24.60;86.80;;;;;;5068212;28;20047;-72
2023/04/10 14:21:35;;;;;;;0.95;0.70;;;24.70;87.40;;;;;;5082787;28;20048;-73
2023/04/10 14:24:03;;;;;;;1.05;0.70;;;25.20;86.80;;;;;;5081711;28;20122;-72
2023/04/10 14:26:32;;;;;;;1.08;0.98;;;25.40;85.30;;;;;;5081886;28;20054;-72
2023/04/10 14:29:00;;;;;;;2.20;1.15;;;25.50;85.20;;;;;;5081152;28;20118;-73
2023/04/10 14:31:29;;;;;;;1.00;0.80;;;25.70;85.30;;;;;;5080146;28;20583;-73
2023/04/10 14:33:57;;;;;;;1.20;0.80;;;26.00;85.00;;;;;;5080175;28;20521;-72
2023/04/10 14:36:28;;;;;;;1.48;0.90;;;26.00;83.80;;;;;;5082113;28;20068;-72
2023/04/10 14:38:56;;;;;;;2.38;0.80;;;26.40;84.00;;;;;;5089618;28;20071;-72
2023/04/10 14:41:25;;;;;;;1.48;0.90;;;26.50;83.30;;;;;;5090300;28;20064;-72
2023/04/10 14:43:53;;;;;;;2.05;1.13;;;26.90;81.90;;;;;;5090775;28;20390;-72
2023/04/10 14:46:24;;;;;;;1.75;1.20;;;27.10;82.10;;;;;;5093058;28;20051;-72
2023/04/10 14:48:52;;;;;;;0.90;0.80;;;27.30;81.80;;;;;;5094298;28;20043;-72
2023/04/10 14:51:21;;;;;;;1.33;0.95;;;27.30;81.30;;;;;;5082827;28;20058;-72
2023/04/10 14:53:51;;;;;;;1.00;0.80;;;27.40;81.50;;;;;;5072439;28;20052;-72
2023/04/10 14:56:20;;;;;;;1.77;0.95;;;27.70;80.20;;;;;;5078026;28;20044;-70
2023/04/10 14:58:48;;;;;;;1.08;0.98;;;27.80;79.60;;;;;;5073812;28;20059;-70
2023/04/10 15:01:17;;;;;;;2.45;1.00;;;27.80;79.90;;;;;;5085588;28;20051;-70
2023/04/10 15:03:47;;;;;;;0.98;0.85;;;28.10;80.40;;;;;;5081946;28;20063;-70
2023/04/10 15:06:16;;;;;;;1.25;1.10;;;28.50;80.30;;;;;;5080100;28;20040;-70
2023/04/10 15:08:45;;;;;;;2.47;0.90;;;28.70;78.80;;;;;;5083863;28;20055;-71
2023/04/10 15:11:15;;;;;;;1.25;1.05;;;28.50;77.30;;;;;;5092273;28;20044;-71
2023/04/10 15:13:46;;;;;;;1.38;0.80;;;28.60;78.40;;;;;;5084438;28;20044;-71
2023/04/10 15:16:15;;;;;;;1.92;1.17;;;29.00;77.70;;;;;;5094615;28;20123;-73
2023/04/10 15:18:47;;;;;;;1.15;0.95;;;29.20;77.30;;;;;;5083536;28;20134;-74
2023/04/10 15:21:16;;;;;;;1.20;1.00;;;29.30;76.30;;;;;;5087939;28;20048;-73
2023/04/10 15:23:44;;;;;;;1.05;0.93;;;29.50;77.10;;;;;;5084877;28;20036;-71
2023/04/10 15:26:14;;;;;;;0.90;0.80;;;29.50;76.40;;;;;;5086563;28;20044;-71
2023/04/10 15:28:43;;;;;;;2.00;1.15;;;29.60;76.40;;;;;;5084008;28;20121;-70
2023/04/10 15:31:12;;;;;;;1.00;0.88;;;29.50;77.30;;;;;;5093171;28;20040;-70
2023/04/10 15:33:41;;;;;;;1.27;1.17;;;29.40;77.00;;;;;;5078714;28;20537;-71
2023/04/10 15:36:09;;;;;;;1.20;1.10;;;29.40;76.60;;;;;;5092962;28;20093;-70
2023/04/10 15:38:38;;;;;;;1.67;1.00;;;29.20;75.70;;;;;;5092598;28;20047;-70
2023/04/10 15:41:08;;;;;;;2.75;1.05;;;29.20;76.20;;;;;;5085109;28;20086;-70
2023/04/10 15:43:38;;;;;;;1.88;0.98;;;29.30;76.40;;;;;;5083632;28;20410;-70
2023/04/10 15:46:07;;;;;;;1.70;0.95;;;29.40;74.60;;;;;;5092627;28;20051;-70
2023/04/10 15:48:36;;;;;;;1.45;1.00;;;29.20;75.40;;;;;;5100094;28;20050;-70
2023/04/10 15:51:05;;;;;;;1.20;1.10;;;29.10;76.20;;;;;;5086266;28;20047;-70
2023/04/10 15:53:34;;;;;;;1.13;0.85;;;28.70;76.50;;;;;;5082120;28;20035;-70
2023/04/10 15:56:04;;;;;;;1.95;1.02;;;27.80;76.50;;;;;;5092528;28;20048;-70
2023/04/10 15:58:33;;;;;;;1.58;1.48;;;27.90;77.20;;;;;;5090825;28;20070;-71
2023/04/10 16:01:04;;;;;;;1.60;1.50;;;28.40;77.20;;;;;;5093148;28;20135;-70
2023/04/10 16:03:33;;;;;;;1.13;1.02;;;28.40;76.70;;;;;;5077030;28;20481;-70
2023/04/10 16:06:02;;;;;;;2.10;1.90;;;28.80;76.60;;;;;;5089723;28;20217;-70
2023/04/10 16:08:30;;;;;;;2.00;1.80;;;29.20;76.20;;;;;;5074748;28;20438;-70
2023/04/10 16:10:59;;;;;;;1.60;1.30;;;29.70;75.20;;;;;;5092088;28;20040;-70
2023/04/10 16:13:27;;;;;;;1.58;1.48;;;30.20;73.90;;;;;;5086618;28;20097;-70
2023/04/10 16:15:56;;;;;;;1.80;1.70;;;30.20;73.10;;;;;;5099738;28;20052;-70
2023/04/10 16:18:27;;;;;;;2.08;1.50;;;30.00;74.90;;;;;;5085636;28;20420;-71
2023/04/10 16:20:56;;;;;;;3.83;1.38;;;29.90;74.10;;;;;;5094567;28;20633;-70
2023/04/10 16:23:24;;;;;;;2.42;1.30;;;30.00;73.40;;;;;;5094808;28;20058;-71
2023/04/10 16:25:53;;;;;;;2.58;1.45;;;30.20;72.70;;;;;;5084184;28;20051;-70
2023/04/10 16:28:22;;;;;;;1.30;1.20;;;29.90;72.80;;;;;;5107822;27;20126;-70
2023/04/10 16:30:50;;;;;;;4.25;1.63;;;29.90;73.00;;;;;;5094735;28;20082;-71
2023/04/10 16:33:19;;;;;;;2.67;1.17;;;29.70;73.20;;;;;;5102495;28;20130;-70
2023/04/10 16:35:49;;;;;;;1.75;1.40;;;30.00;72.80;;;;;;5102279;28;20067;-70
2023/04/10 16:38:25;;;;;;;2.33;1.20;;;30.50;73.20;;;;;;5100826;28;20071;-71
2023/04/10 16:40:53;;;;;;;1.55;1.20;;;30.50;78.60;;;;;;5091442;28;20044;-70
2023/04/10 16:43:22;;;;;;;1.75;1.15;;;30.00;80.40;;;;;;5082560;28;20097;-71
2023/04/10 16:45:54;;;;;;;1.35;1.20;;;29.70;82.00;;;;;;5083683;28;20044;-71